Ben-my-chree — MXLG6 — position and weather

sailwx.info

Track history (hours):
 
Tides and Currents Weather Stations Pressure Air Temp Water Temp Dewpoint Dewpoint Depression Visibility Wind Speed Wind Dir Waves Ship Positions

Ben-my-chree

Operator: The Isle of Man Steam Packet Co Ltd

Last reported at 2017-Aug-17 03:19 UTC. Time now 2017-Aug-17 03:36 UTC.
Position N 53°56' W 003°20'.

Length 120 m; draft 5 m.

Type: Passenger vessel. MMSI: 234983000.

Date/timePositionNaut miles runAvg speedWind from/ knotsBaromVisibWave heightAir tempDewpointWater temp
2017-Aug-17 03:19N 53°56' W 003°20'515.9
2017-Aug-17 03:00N 53°55' W 003°12'12 2.8
2017-Aug-16 22:53N 54°02' W 002°56'714.8
2017-Aug-16 22:26N 53°57' W 003°04'716.0
2017-Aug-16 22:00N 53°55' W 003°15'816.4
2017-Aug-16 21:30N 53°55' W 003°29'32 7.1
2017-Aug-16 16:59N 54°08' W 004°19'917.1
2017-Aug-16 16:27N 54°04' W 004°05'2316.7
2017-Aug-16 15:06N 53°56' W 003°29'216.6
2017-Aug-16 15:00N 53°56' W 003°27'816.6
2017-Aug-16 14:30N 53°56' W 003°13'4 1.1
2017-Aug-16 10:51N 53°57' W 003°06'516.4
2017-Aug-16 10:30N 53°56' W 003°15'816.4
2017-Aug-16 10:00N 53°56' W 003°29'815.9
2017-Aug-16 09:30N 53°59' W 003°42'29 6.3
2017-Aug-16 04:59N 54°09' W 004°27'916.5
2017-Aug-16 04:26N 54°07' W 004°12'816.7
2017-Aug-16 03:56N 54°03' W 003°59'716.4
2017-Aug-16 03:30N 54°00' W 003°49'816.1
2017-Aug-16 03:00N 53°57' W 003°36'815.9
2017-Aug-16 02:29N 53°55' W 003°22'815.9
2017-Aug-16 02:00N 53°56' W 003°09'2 0.5
2017-Aug-15 21:57N 53°57' W 003°06'612.7
2017-Aug-15 21:30N 53°55' W 003°15'816.9
2017-Aug-15 21:00N 53°55' W 003°30'916.7
2017-Aug-15 20:28N 53°58' W 003°44'27 7.6
2017-Aug-15 16:54N 54°09' W 004°27'1317.1
2017-Aug-15 16:08N 54°04' W 004°06'216.8
2017-Aug-15 16:00N 54°03' W 004°02'1416.6
2017-Aug-15 15:10N 53°59' W 003°40'716.4
2017-Aug-15 14:44N 53°56' W 003°29'1016.0
2017-Aug-15 14:07N 53°56' W 003°13'216.0
2017-Aug-15 14:00N 53°56' W 003°09'2 0.6
2017-Aug-15 10:38N 53°57' W 003°06'216.8
2017-Aug-15 10:30N 53°56' W 003°10'917.2
2017-Aug-15 10:00N 53°56' W 003°24'816.8
2017-Aug-15 09:30N 53°58' W 003°38'31 8.2
2017-Aug-15 05:42N 54°09' W 004°28'416.5
2017-Aug-15 05:29N 54°09' W 004°21'1417.8
2017-Aug-15 04:42N 54°02' W 004°00'417.6
2017-Aug-15 04:29N 54°01' W 003°54'1617.2
2017-Aug-15 03:34N 53°56' W 003°29'117.2
2017-Aug-15 03:29N 53°56' W 003°26'816.6
2017-Aug-15 03:00N 53°56' W 003°13'815.4
2017-Aug-15 02:30N 53°59' W 003°01'4 1.0
2017-Aug-14 22:31N 53°57' W 003°07'017.0
2017-Aug-14 22:30N 53°56' W 003°07'917.1
2017-Aug-14 22:00N 53°55' W 003°22'816.8
2017-Aug-14 21:30N 53°55' W 003°36'31 6.5
2017-Aug-14 16:41N 54°09' W 004°23'417.7
2017-Aug-14 16:28N 54°07' W 004°17'817.6
2017-Aug-14 16:00N 54°04' W 004°05'2217.4
2017-Aug-14 14:43N 53°56' W 003°29'916.9
2017-Aug-14 14:10N 53°56' W 003°13'316.3
2017-Aug-14 14:00N 53°56' W 003°09'10 3.5
2017-Aug-14 11:14N 54°02' W 002°55'716.2
2017-Aug-14 10:49N 53°57' W 003°04'517.1
2017-Aug-14 10:30N 53°55' W 003°13'817.1
2017-Aug-14 10:00N 53°56' W 003°27'1016.2
2017-Aug-14 09:23N 53°59' W 003°43'26 5.3
2017-Aug-14 04:32N 54°09' W 004°23'118.1
2017-Aug-14 04:30N 54°09' W 004°23'917.9
2017-Aug-14 03:59N 54°05' W 004°08'2417.2
2017-Aug-14 02:35N 53°56' W 003°30'816.5
2017-Aug-14 02:07N 53°56' W 003°17'216.9
2017-Aug-14 01:58N 53°56' W 003°13'815.4
2017-Aug-14 01:28N 53°59' W 003°01'5 1.6
2017-Aug-13 22:34N 54°02' W 002°55'414.6
2017-Aug-13 22:16N 53°59' W 003°01'417.3
2017-Aug-13 22:01N 53°56' W 003°07'917.2
2017-Aug-13 21:30N 53°55' W 003°22'816.7
2017-Aug-13 21:00N 53°57' W 003°36'816.6
2017-Aug-13 20:30N 53°60' W 003°49'13 2.1
2017-Aug-13 14:38N 53°56' W 003°29'317.6
2017-Aug-13 14:29N 53°56' W 003°25'817.3
2017-Aug-13 14:00N 53°56' W 003°10'4 1.2
2017-Aug-13 10:45N 53°57' W 003°04'518.8
2017-Aug-13 10:30N 53°55' W 003°11'918.9
2017-Aug-13 10:00N 53°56' W 003°27'917.9
2017-Aug-13 09:28N 53°59' W 003°42'31 8.1
2017-Aug-13 05:37N 54°03' W 004°35'315.0
2017-Aug-13 05:26N 54°02' W 004°39'1114.3
2017-Aug-13 04:39N 54°08' W 004°56'317.4
2017-Aug-13 04:30N 54°10' W 004°58'917.6
2017-Aug-13 04:00N 54°17' W 005°06'917.4
2017-Aug-13 03:30N 54°25' W 005°14'917.2
2017-Aug-13 03:00N 54°33' W 005°19'917.2
2017-Aug-13 02:30N 54°40' W 005°27'815.2
2017-Aug-13 02:00N 54°43' W 005°39'816.7
2017-Aug-13 01:30N 54°39' W 005°52'3 5.3
2017-Aug-13 01:00N 54°37' W 005°55'0 0.0
2017-Aug-13 00:29N 54°37' W 005°55'0 0.0
2017-Aug-12 23:47N 54°37' W 005°55'1 2.3
2017-Aug-12 23:27N 54°37' W 005°54'511.4
2017-Aug-12 23:01N 54°41' W 005°48'816.7
2017-Aug-12 22:31N 54°43' W 005°34'713.8
2017-Aug-12 22:01N 54°39' W 005°24'815.4
2017-Aug-12 21:31N 54°33' W 005°18'816.1
2017-Aug-12 21:01N 54°25' W 005°12'816.5
2017-Aug-12 20:30N 54°18' W 005°06'816.9
2017-Aug-12 20:01N 54°11' W 004°58'816.8
2017-Aug-12 19:30N 54°03' W 004°51'816.8
2017-Aug-12 19:00N 54°03' W 004°37'9 3.9
2017-Aug-12 16:41N 54°09' W 004°26'418.0
2017-Aug-12 16:27N 54°07' W 004°20'1318.4
2017-Aug-12 15:44N 54°02' W 003°59'414.5
2017-Aug-12 15:27N 54°01' W 003°52'1516.9
2017-Aug-12 14:34N 53°55' W 003°28'117.0
2017-Aug-12 14:29N 53°55' W 003°26'816.9
2017-Aug-12 14:00N 53°56' W 003°12'3 0.8
2017-Aug-12 10:20N 53°56' W 003°08'719.1
2017-Aug-12 09:57N 53°56' W 003°20'818.4
2017-Aug-12 09:30N 53°57' W 003°34'1 0.2
2017-Aug-12 02:35N 53°56' W 003°32'217.8
2017-Aug-12 02:28N 53°56' W 003°29'1017.5
2017-Aug-12 01:53N 53°55' W 003°12'716.3
2017-Aug-12 01:27N 53°59' W 003°01'5 1.3
2017-Aug-11 22:01N 54°02' W 002°56'817.4
2017-Aug-11 21:32N 53°57' W 003°06'118.8
2017-Aug-11 21:30N 53°56' W 003°07'918.4
2017-Aug-11 21:00N 53°55' W 003°23'918.1
2017-Aug-11 20:30N 53°58' W 003°38'27 6.6
2017-Aug-11 16:23N 54°08' W 004°21'1317.4
2017-Aug-11 15:39N 54°03' W 004°01'417.3
2017-Aug-11 15:24N 54°01' W 003°54'917.1
2017-Aug-11 14:53N 53°59' W 003°40'717.4
2017-Aug-11 14:29N 53°56' W 003°29'1716.2
2017-Aug-11 13:27N 53°59' W 003°01'4 1.4
2017-Aug-11 10:25N 53°56' W 003°07'819.0
2017-Aug-11 10:00N 53°55' W 003°21'918.4
2017-Aug-11 09:30N 53°57' W 003°36'918.1
2017-Aug-11 09:01N 54°00' W 003°50'23 5.5
2017-Aug-11 04:50N 54°09' W 004°27'617.4
2017-Aug-11 04:30N 54°07' W 004°17'1518.1
2017-Aug-11 03:39N 54°01' W 003°54'1518.1
2017-Aug-11 02:50N 53°56' W 003°30'717.8
2017-Aug-11 02:28N 53°55' W 003°19'917.3
2017-Aug-11 01:56N 53°58' W 003°04'7 2.1
2017-Aug-10 22:48N 54°02' W 002°55'717.9
2017-Aug-10 22:24N 53°57' W 003°05'819.9
2017-Aug-10 22:00N 53°55' W 003°17'918.7
2017-Aug-10 21:31N 53°56' W 003°33'1018.5
2017-Aug-10 20:59N 53°60' W 003°48'23 4.9
2017-Aug-10 16:20N 54°08' W 004°24'618.3
2017-Aug-10 16:00N 54°06' W 004°15'1018.2
2017-Aug-10 15:28N 54°02' W 003°59'1118.0
2017-Aug-10 14:52N 53°58' W 003°42'818.1
2017-Aug-10 14:26N 53°56' W 003°30'1018.3
2017-Aug-10 13:52N 53°56' W 003°12'5 1.4
2017-Aug-10 10:25N 53°57' W 003°04'820.0
2017-Aug-10 10:00N 53°55' W 003°18'919.1
2017-Aug-10 09:30N 53°56' W 003°34'30 5.7
2017-Aug-10 04:20N 54°08' W 004°20'3317.3
2017-Aug-10 02:26N 53°56' W 003°29'1018.4
2017-Aug-10 01:53N 53°56' W 003°12'5 1.2
2017-Aug-09 21:46N 53°58' W 003°04'518.9
2017-Aug-09 21:30N 53°56' W 003°11'713.3
2017-Aug-09 21:00N 53°55' W 003°23'815.2
2017-Aug-09 20:30N 53°57' W 003°35'918.5
2017-Aug-09 20:00N 54°00' W 003°50'24 6.7
2017-Aug-09 16:25N 54°09' W 004°27'717.2
2017-Aug-09 16:00N 54°07' W 004°16'1418.1
2017-Aug-09 15:14N 54°01' W 003°54'1817.9
2017-Aug-09 14:14N 53°55' W 003°25'818.2
2017-Aug-09 13:49N 53°56' W 003°12'12 4.0
2017-Aug-09 10:52N 54°02' W 002°55'918.2
2017-Aug-09 10:22N 53°56' W 003°08'718.7
2017-Aug-09 09:59N 53°55' W 003°20'918.4
2017-Aug-09 09:30N 53°57' W 003°34'32 6.3
2017-Aug-09 04:22N 54°09' W 004°25'1317.9
2017-Aug-09 03:38N 54°04' W 004°05'218.0
2017-Aug-09 03:30N 54°03' W 004°01'2018.2
2017-Aug-09 02:24N 53°56' W 003°29'1018.6
2017-Aug-09 01:54N 53°56' W 003°13'819.3
2017-Aug-09 01:30N 53°59' W 003°01'5 1.3
2017-Aug-08 21:53N 54°02' W 002°56'817.7
2017-Aug-08 21:25N 53°57' W 003°07'818.7
2017-Aug-08 20:59N 53°55' W 003°20'918.4
2017-Aug-08 20:30N 53°57' W 003°35'33 8.2
2017-Aug-08 16:28N 54°09' W 004°27'817.4
2017-Aug-08 16:00N 54°06' W 004°15'917.9
2017-Aug-08 15:30N 54°03' W 004°01'1618.0
2017-Aug-08 14:36N 53°57' W 003°35'418.1
2017-Aug-08 14:24N 53°56' W 003°29'1018.4
2017-Aug-08 13:53N 53°56' W 003°13'719.3
2017-Aug-08 13:30N 53°58' W 003°01'5 1.9
2017-Aug-08 10:56N 54°02' W 002°55'817.3
2017-Aug-08 10:28N 53°57' W 003°06'918.7
2017-Aug-08 09:59N 53°56' W 003°21'918.1
2017-Aug-08 09:30N 53°57' W 003°36'918.3
2017-Aug-08 09:00N 54°00' W 003°51'23 5.0
2017-Aug-08 04:19N 54°09' W 004°28'616.8
2017-Aug-08 03:56N 54°07' W 004°17'918.1
2017-Aug-08 03:28N 54°04' W 004°04'2218.7
2017-Aug-08 02:16N 53°56' W 003°28'818.9
2017-Aug-08 01:51N 53°56' W 003°15'719.3
2017-Aug-08 01:31N 53°58' W 003°04'2 0.5
2017-Aug-07 21:22N 53°57' W 003°07'919.3
2017-Aug-07 20:55N 53°56' W 003°22'818.7
2017-Aug-07 20:30N 53°57' W 003°35'1218.6
2017-Aug-07 19:50N 54°01' W 003°54'19 5.6
2017-Aug-07 16:29N 54°09' W 004°24'2017.9
2017-Aug-07 15:23N 54°01' W 003°53'1618.1
2017-Aug-07 14:32N 53°56' W 003°29'1018.5
2017-Aug-07 13:58N 53°56' W 003°11'7 2.2
2017-Aug-07 10:38N 53°59' W 003°00'312.5
2017-Aug-07 10:23N 53°57' W 003°05'718.5
2017-Aug-07 10:00N 53°55' W 003°16'918.3
2017-Aug-07 09:30N 53°56' W 003°31'33 6.4
2017-Aug-07 04:18N 54°09' W 004°24'1516.9
2017-Aug-07 03:26N 54°03' W 004°01'  
Track history (hours):
 
Tides and Currents Weather Stations Pressure Air Temp Water Temp Dewpoint Dewpoint Depression Visibility Wind Speed Wind Dir Waves Ship Positions

Ben-my-chree

Operator: The Isle of Man Steam Packet Co Ltd

Last reported at 2017-Aug-17 03:19 UTC. Time now 2017-Aug-17 03:36 UTC.
Position N 53°56' W 003°20'.

Length 120 m; draft 5 m.

Type: Passenger vessel. MMSI: 234983000.

Date/timePositionNaut miles runAvg speedWind from/ knotsBaromVisibWave heightAir tempDewpointWater temp
2017-Aug-17 03:19N 53°56' W 003°20'515.9
2017-Aug-17 03:00N 53°55' W 003°12'12 2.8
2017-Aug-16 22:53N 54°02' W 002°56'714.8
2017-Aug-16 22:26N 53°57' W 003°04'716.0
2017-Aug-16 22:00N 53°55' W 003°15'816.4
2017-Aug-16 21:30N 53°55' W 003°29'32 7.1
2017-Aug-16 16:59N 54°08' W 004°19'917.1
2017-Aug-16 16:27N 54°04' W 004°05'2316.7
2017-Aug-16 15:06N 53°56' W 003°29'216.6
2017-Aug-16 15:00N 53°56' W 003°27'816.6
2017-Aug-16 14:30N 53°56' W 003°13'4 1.1
2017-Aug-16 10:51N 53°57' W 003°06'516.4
2017-Aug-16 10:30N 53°56' W 003°15'816.4
2017-Aug-16 10:00N 53°56' W 003°29'815.9
2017-Aug-16 09:30N 53°59' W 003°42'29 6.3
2017-Aug-16 04:59N 54°09' W 004°27'916.5
2017-Aug-16 04:26N 54°07' W 004°12'816.7
2017-Aug-16 03:56N 54°03' W 003°59'716.4
2017-Aug-16 03:30N 54°00' W 003°49'816.1
2017-Aug-16 03:00N 53°57' W 003°36'815.9
2017-Aug-16 02:29N 53°55' W 003°22'815.9
2017-Aug-16 02:00N 53°56' W 003°09'2 0.5
2017-Aug-15 21:57N 53°57' W 003°06'612.7
2017-Aug-15 21:30N 53°55' W 003°15'816.9
2017-Aug-15 21:00N 53°55' W 003°30'916.7
2017-Aug-15 20:28N 53°58' W 003°44'27 7.6
2017-Aug-15 16:54N 54°09' W 004°27'1317.1
2017-Aug-15 16:08N 54°04' W 004°06'216.8
2017-Aug-15 16:00N 54°03' W 004°02'1416.6
2017-Aug-15 15:10N 53°59' W 003°40'716.4
2017-Aug-15 14:44N 53°56' W 003°29'1016.0
2017-Aug-15 14:07N 53°56' W 003°13'216.0
2017-Aug-15 14:00N 53°56' W 003°09'2 0.6
2017-Aug-15 10:38N 53°57' W 003°06'216.8
2017-Aug-15 10:30N 53°56' W 003°10'917.2
2017-Aug-15 10:00N 53°56' W 003°24'816.8
2017-Aug-15 09:30N 53°58' W 003°38'31 8.2
2017-Aug-15 05:42N 54°09' W 004°28'416.5
2017-Aug-15 05:29N 54°09' W 004°21'1417.8
2017-Aug-15 04:42N 54°02' W 004°00'417.6
2017-Aug-15 04:29N 54°01' W 003°54'1617.2
2017-Aug-15 03:34N 53°56' W 003°29'117.2
2017-Aug-15 03:29N 53°56' W 003°26'816.6
2017-Aug-15 03:00N 53°56' W 003°13'815.4
2017-Aug-15 02:30N 53°59' W 003°01'4 1.0
2017-Aug-14 22:31N 53°57' W 003°07'017.0
2017-Aug-14 22:30N 53°56' W 003°07'917.1
2017-Aug-14 22:00N 53°55' W 003°22'816.8
2017-Aug-14 21:30N 53°55' W 003°36'31 6.5
2017-Aug-14 16:41N 54°09' W 004°23'417.7
2017-Aug-14 16:28N 54°07' W 004°17'817.6
2017-Aug-14 16:00N 54°04' W 004°05'2217.4
2017-Aug-14 14:43N 53°56' W 003°29'916.9
2017-Aug-14 14:10N 53°56' W 003°13'316.3
2017-Aug-14 14:00N 53°56' W 003°09'10 3.5
2017-Aug-14 11:14N 54°02' W 002°55'716.2
2017-Aug-14 10:49N 53°57' W 003°04'517.1
2017-Aug-14 10:30N 53°55' W 003°13'817.1
2017-Aug-14 10:00N 53°56' W 003°27'1016.2
2017-Aug-14 09:23N 53°59' W 003°43'26 5.3
2017-Aug-14 04:32N 54°09' W 004°23'118.1
2017-Aug-14 04:30N 54°09' W 004°23'917.9
2017-Aug-14 03:59N 54°05' W 004°08'2417.2
2017-Aug-14 02:35N 53°56' W 003°30'816.5
2017-Aug-14 02:07N 53°56' W 003°17'216.9
2017-Aug-14 01:58N 53°56' W 003°13'815.4
2017-Aug-14 01:28N 53°59' W 003°01'5 1.6
2017-Aug-13 22:34N 54°02' W 002°55'414.6
2017-Aug-13 22:16N 53°59' W 003°01'417.3
2017-Aug-13 22:01N 53°56' W 003°07'917.2
2017-Aug-13 21:30N 53°55' W 003°22'816.7
2017-Aug-13 21:00N 53°57' W 003°36'816.6
2017-Aug-13 20:30N 53°60' W 003°49'13 2.1
2017-Aug-13 14:38N 53°56' W 003°29'317.6
2017-Aug-13 14:29N 53°56' W 003°25'817.3
2017-Aug-13 14:00N 53°56' W 003°10'4 1.2
2017-Aug-13 10:45N 53°57' W 003°04'518.8
2017-Aug-13 10:30N 53°55' W 003°11'918.9
2017-Aug-13 10:00N 53°56' W 003°27'917.9
2017-Aug-13 09:28N 53°59' W 003°42'31 8.1
2017-Aug-13 05:37N 54°03' W 004°35'315.0
2017-Aug-13 05:26N 54°02' W 004°39'1114.3
2017-Aug-13 04:39N 54°08' W 004°56'317.4
2017-Aug-13 04:30N 54°10' W 004°58'917.6
2017-Aug-13 04:00N 54°17' W 005°06'917.4
2017-Aug-13 03:30N 54°25' W 005°14'917.2
2017-Aug-13 03:00N 54°33' W 005°19'917.2
2017-Aug-13 02:30N 54°40' W 005°27'815.2
2017-Aug-13 02:00N 54°43' W 005°39'816.7
2017-Aug-13 01:30N 54°39' W 005°52'3 5.3
2017-Aug-13 01:00N 54°37' W 005°55'0 0.0
2017-Aug-13 00:29N 54°37' W 005°55'0 0.0
2017-Aug-12 23:47N 54°37' W 005°55'1 2.3
2017-Aug-12 23:27N 54°37' W 005°54'511.4
2017-Aug-12 23:01N 54°41' W 005°48'816.7
2017-Aug-12 22:31N 54°43' W 005°34'713.8
2017-Aug-12 22:01N 54°39' W 005°24'815.4
2017-Aug-12 21:31N 54°33' W 005°18'816.1
2017-Aug-12 21:01N 54°25' W 005°12'816.5
2017-Aug-12 20:30N 54°18' W 005°06'816.9
2017-Aug-12 20:01N 54°11' W 004°58'816.8
2017-Aug-12 19:30N 54°03' W 004°51'816.8
2017-Aug-12 19:00N 54°03' W 004°37'9 3.9
2017-Aug-12 16:41N 54°09' W 004°26'418.0
2017-Aug-12 16:27N 54°07' W 004°20'1318.4
2017-Aug-12 15:44N 54°02' W 003°59'414.5
2017-Aug-12 15:27N 54°01' W 003°52'1516.9
2017-Aug-12 14:34N 53°55' W 003°28'117.0
2017-Aug-12 14:29N 53°55' W 003°26'816.9
2017-Aug-12 14:00N 53°56' W 003°12'3 0.8
2017-Aug-12 10:20N 53°56' W 003°08'719.1
2017-Aug-12 09:57N 53°56' W 003°20'818.4
2017-Aug-12 09:30N 53°57' W 003°34'1 0.2
2017-Aug-12 02:35N 53°56' W 003°32'217.8
2017-Aug-12 02:28N 53°56' W 003°29'1017.5
2017-Aug-12 01:53N 53°55' W 003°12'716.3
2017-Aug-12 01:27N 53°59' W 003°01'5 1.3
2017-Aug-11 22:01N 54°02' W 002°56'817.4
2017-Aug-11 21:32N 53°57' W 003°06'118.8
2017-Aug-11 21:30N 53°56' W 003°07'918.4
2017-Aug-11 21:00N 53°55' W 003°23'918.1
2017-Aug-11 20:30N 53°58' W 003°38'27 6.6
2017-Aug-11 16:23N 54°08' W 004°21'1317.4
2017-Aug-11 15:39N 54°03' W 004°01'417.3
2017-Aug-11 15:24N 54°01' W 003°54'917.1
2017-Aug-11 14:53N 53°59' W 003°40'717.4
2017-Aug-11 14:29N 53°56' W 003°29'1716.2
2017-Aug-11 13:27N 53°59' W 003°01'4 1.4
2017-Aug-11 10:25N 53°56' W 003°07'819.0
2017-Aug-11 10:00N 53°55' W 003°21'918.4
2017-Aug-11 09:30N 53°57' W 003°36'918.1
2017-Aug-11 09:01N 54°00' W 003°50'23 5.5
2017-Aug-11 04:50N 54°09' W 004°27'617.4
2017-Aug-11 04:30N 54°07' W 004°17'1518.1
2017-Aug-11 03:39N 54°01' W 003°54'1518.1
2017-Aug-11 02:50N 53°56' W 003°30'717.8
2017-Aug-11 02:28N 53°55' W 003°19'917.3
2017-Aug-11 01:56N 53°58' W 003°04'7 2.1
2017-Aug-10 22:48N 54°02' W 002°55'717.9
2017-Aug-10 22:24N 53°57' W 003°05'819.9
2017-Aug-10 22:00N 53°55' W 003°17'918.7
2017-Aug-10 21:31N 53°56' W 003°33'1018.5
2017-Aug-10 20:59N 53°60' W 003°48'23 4.9
2017-Aug-10 16:20N 54°08' W 004°24'618.3
2017-Aug-10 16:00N 54°06' W 004°15'1018.2
2017-Aug-10 15:28N 54°02' W 003°59'1118.0
2017-Aug-10 14:52N 53°58' W 003°42'818.1
2017-Aug-10 14:26N 53°56' W 003°30'1018.3
2017-Aug-10 13:52N 53°56' W 003°12'5 1.4
2017-Aug-10 10:25N 53°57' W 003°04'820.0
2017-Aug-10 10:00N 53°55' W 003°18'919.1
2017-Aug-10 09:30N 53°56' W 003°34'30 5.7
2017-Aug-10 04:20N 54°08' W 004°20'3317.3
2017-Aug-10 02:26N 53°56' W 003°29'1018.4
2017-Aug-10 01:53N 53°56' W 003°12'5 1.2
2017-Aug-09 21:46N 53°58' W 003°04'518.9
2017-Aug-09 21:30N 53°56' W 003°11'713.3
2017-Aug-09 21:00N 53°55' W 003°23'815.2
2017-Aug-09 20:30N 53°57' W 003°35'918.5
2017-Aug-09 20:00N 54°00' W 003°50'24 6.7
2017-Aug-09 16:25N 54°09' W 004°27'717.2
2017-Aug-09 16:00N 54°07' W 004°16'1418.1
2017-Aug-09 15:14N 54°01' W 003°54'1817.9
2017-Aug-09 14:14N 53°55' W 003°25'818.2
2017-Aug-09 13:49N 53°56' W 003°12'12 4.0
2017-Aug-09 10:52N 54°02' W 002°55'918.2
2017-Aug-09 10:22N 53°56' W 003°08'718.7
2017-Aug-09 09:59N 53°55' W 003°20'918.4
2017-Aug-09 09:30N 53°57' W 003°34'32 6.3
2017-Aug-09 04:22N 54°09' W 004°25'1317.9
2017-Aug-09 03:38N 54°04' W 004°05'218.0
2017-Aug-09 03:30N 54°03' W 004°01'2018.2
2017-Aug-09 02:24N 53°56' W 003°29'1018.6
2017-Aug-09 01:54N 53°56' W 003°13'819.3
2017-Aug-09 01:30N 53°59' W 003°01'5 1.3
2017-Aug-08 21:53N 54°02' W 002°56'817.7
2017-Aug-08 21:25N 53°57' W 003°07'818.7
2017-Aug-08 20:59N 53°55' W 003°20'918.4
2017-Aug-08 20:30N 53°57' W 003°35'33 8.2
2017-Aug-08 16:28N 54°09' W 004°27'817.4
2017-Aug-08 16:00N 54°06' W 004°15'917.9
2017-Aug-08 15:30N 54°03' W 004°01'1618.0
2017-Aug-08 14:36N 53°57' W 003°35'418.1
2017-Aug-08 14:24N 53°56' W 003°29'1018.4
2017-Aug-08 13:53N 53°56' W 003°13'719.3
2017-Aug-08 13:30N 53°58' W 003°01'5 1.9
2017-Aug-08 10:56N 54°02' W 002°55'817.3
2017-Aug-08 10:28N 53°57' W 003°06'918.7
2017-Aug-08 09:59N 53°56' W 003°21'918.1
2017-Aug-08 09:30N 53°57' W 003°36'918.3
2017-Aug-08 09:00N 54°00' W 003°51'23 5.0
2017-Aug-08 04:19N 54°09' W 004°28'616.8
2017-Aug-08 03:56N 54°07' W 004°17'918.1
2017-Aug-08 03:28N 54°04' W 004°04'2218.7
2017-Aug-08 02:16N 53°56' W 003°28'818.9
2017-Aug-08 01:51N 53°56' W 003°15'719.3
2017-Aug-08 01:31N 53°58' W 003°04'2 0.5
2017-Aug-07 21:22N 53°57' W 003°07'919.3
2017-Aug-07 20:55N 53°56' W 003°22'818.7
2017-Aug-07 20:30N 53°57' W 003°35'1218.6
2017-Aug-07 19:50N 54°01' W 003°54'19 5.6
2017-Aug-07 16:29N 54°09' W 004°24'2017.9
2017-Aug-07 15:23N 54°01' W 003°53'1618.1
2017-Aug-07 14:32N 53°56' W 003°29'1018.5
2017-Aug-07 13:58N 53°56' W 003°11'7 2.2
2017-Aug-07 10:38N 53°59' W 003°00'312.5
2017-Aug-07 10:23N 53°57' W 003°05'718.5
2017-Aug-07 10:00N 53°55' W 003°16'918.3
2017-Aug-07 09:30N 53°56' W 003°31'33 6.4
2017-Aug-07 04:18N 54°09' W 004°24'1516.9
2017-Aug-07 03:26N 54°03' W 004°01'  

Dump ship's entire track history